createdAt,value
2019-04-06T00:01:28.619Z,29.50
2019-04-06T00:03:57.366Z,28.70
2019-04-06T00:06:26.115Z,27.57
2019-04-06T00:08:54.881Z,28.27
2019-04-06T00:11:23.644Z,29.07
2019-04-06T00:13:52.409Z,28.63
2019-04-06T00:16:21.240Z,30.17
2019-04-06T00:18:50.009Z,25.40
2019-04-06T00:21:18.834Z,24.73
2019-04-06T00:23:47.579Z,27.10
2019-04-06T00:26:16.343Z,26.57
2019-04-06T00:28:45.076Z,29.17
2019-04-06T00:31:51.404Z,31.80
2019-04-06T00:34:20.422Z,32.17
2019-04-06T00:36:49.151Z,34.47
2019-04-06T00:39:17.975Z,29.30
2019-04-06T00:41:46.991Z,25.77
2019-04-06T00:44:16.903Z,26.57
2019-04-06T00:46:45.849Z,27.50
2019-04-06T00:49:14.571Z,30.20
2019-04-06T00:51:43.395Z,35.73
2019-04-06T00:54:12.128Z,34.23
2019-04-06T00:56:40.883Z,38.30
2019-04-06T00:59:09.794Z,37.17
2019-04-06T01:01:38.536Z,36.63
2019-04-06T01:04:07.365Z,36.63
2019-04-06T01:06:36.195Z,38.67
2019-04-06T01:09:08.898Z,39.90
2019-04-06T01:11:37.730Z,40.07
2019-04-06T01:14:06.544Z,40.53
2019-04-06T01:16:35.300Z,42.30
2019-04-06T01:19:04.115Z,41.97
2019-04-06T01:21:32.825Z,41.80
2019-04-06T01:24:01.581Z,40.33
2019-04-06T01:26:30.347Z,40.63
2019-04-06T01:28:59.277Z,39.70
2019-04-06T01:31:28.364Z,39.37
2019-04-06T01:33:59.030Z,41.33
2019-04-06T01:36:27.625Z,40.67
2019-04-06T01:38:56.399Z,40.63
2019-04-06T01:41:25.256Z,41.57
2019-04-06T01:43:54.149Z,41.70
2019-04-06T01:46:22.903Z,40.83
2019-04-06T01:48:51.639Z,40.67
2019-04-06T01:51:20.420Z,40.37
2019-04-06T01:53:49.181Z,39.93
2019-04-06T01:56:19.053Z,43.43
2019-04-06T01:58:48.055Z,41.90
2019-04-06T02:01:21.744Z,42.13
2019-04-06T02:03:50.935Z,35.87
2019-04-06T02:06:19.729Z,38.20
2019-04-06T02:08:48.557Z,34.57
2019-04-06T02:11:17.327Z,38.00
2019-04-06T02:13:46.181Z,37.60
2019-04-06T02:16:14.921Z,32.53
2019-04-06T02:18:43.681Z,31.80
2019-04-06T02:21:12.430Z,33.33
2019-04-06T02:23:41.439Z,33.80
2019-04-06T02:26:10.532Z,33.10
2019-04-06T02:28:39.285Z,30.03
2019-04-06T02:31:14.684Z,30.43
2019-04-06T02:34:07.898Z,30.23
2019-04-06T02:36:55.702Z,30.27
2019-04-06T02:39:35.033Z,28.27
2019-04-06T02:42:14.715Z,30.33
2019-04-06T02:44:43.464Z,34.00
2019-04-06T02:47:12.257Z,33.43
2019-04-06T02:49:40.999Z,31.83
2019-04-06T02:52:10.048Z,30.47
2019-04-06T02:54:38.789Z,31.10
2019-04-06T02:57:07.519Z,29.90
2019-04-06T02:59:36.514Z,30.37
2019-04-06T03:02:05.502Z,31.77
2019-04-06T03:04:34.263Z,28.67
2019-04-06T03:07:03.070Z,31.80
2019-04-06T03:09:31.882Z,32.40
2019-04-06T03:12:00.696Z,28.70
2019-04-06T03:14:29.467Z,29.67
2019-04-06T03:16:58.278Z,28.40
2019-04-06T03:19:30.629Z,29.87
2019-04-06T03:22:00.066Z,30.60
2019-04-06T03:24:29.874Z,28.63
2019-04-06T03:27:02.443Z,31.03
2019-04-06T03:29:30.642Z,29.57
2019-04-06T03:31:59.945Z,30.30
2019-04-06T03:34:32.209Z,29.73
2019-04-06T03:37:01.090Z,30.37
2019-04-06T03:39:29.867Z,30.43
2019-04-06T03:41:58.647Z,29.70
2019-04-06T03:44:27.388Z,28.83
2019-04-06T03:46:56.630Z,29.97
2019-04-06T03:49:25.425Z,31.13
2019-04-06T03:51:54.535Z,30.07
2019-04-06T03:54:23.284Z,32.37
2019-04-06T03:56:52.314Z,30.47
2019-04-06T03:59:21.067Z,45.17
2019-04-06T04:01:50.088Z,34.40
2019-04-06T04:04:18.926Z,33.23
2019-04-06T04:06:47.652Z,36.07
2019-04-06T04:09:16.680Z,36.80
2019-04-06T04:11:45.413Z,35.27
2019-04-06T04:14:14.297Z,34.80
2019-04-06T04:19:03.515Z,35.30
2019-04-06T04:21:32.298Z,37.77
2019-04-06T04:24:01.144Z,36.83
2019-04-06T04:26:29.953Z,34.03
2019-04-06T04:28:58.721Z,34.20
2019-04-06T04:31:27.457Z,35.73
2019-04-06T04:33:56.209Z,33.80
2019-04-06T04:36:24.960Z,32.20
2019-04-06T04:38:53.861Z,34.67
2019-04-06T04:41:22.618Z,31.17
2019-04-06T04:43:51.371Z,32.87
2019-04-06T04:46:20.112Z,36.17
2019-04-06T04:48:48.877Z,46.90
2019-04-06T04:51:17.754Z,41.17
2019-04-06T04:53:47.937Z,42.77
2019-04-06T04:56:16.688Z,49.57
2019-04-06T04:58:45.510Z,47.57
2019-04-06T05:01:14.247Z,34.90
2019-04-06T05:03:43.012Z,32.10
2019-04-06T05:06:11.751Z,27.93
2019-04-06T05:08:40.516Z,27.60
2019-04-06T05:11:09.251Z,30.73
2019-04-06T05:13:38.013Z,40.83
2019-04-06T05:16:11.210Z,35.93
2019-04-06T05:18:40.819Z,43.10
2019-04-06T05:21:09.725Z,30.63
2019-04-06T05:23:38.812Z,27.43
2019-04-06T05:26:07.807Z,31.13
2019-04-06T05:28:36.892Z,39.23
2019-04-06T05:31:06.140Z,32.50
2019-04-06T05:33:34.915Z,29.10
2019-04-06T05:36:04.514Z,29.30
2019-04-06T05:38:33.338Z,29.77
2019-04-06T05:41:02.093Z,31.60
2019-04-06T05:43:30.828Z,29.33
2019-04-06T05:45:59.584Z,32.47
2019-04-06T05:48:28.419Z,29.87
2019-04-06T05:50:57.261Z,35.43
2019-04-06T05:53:25.997Z,39.03
2019-04-06T05:55:54.839Z,35.10
2019-04-06T05:58:23.879Z,32.40
2019-04-06T06:00:52.756Z,35.77
2019-04-06T06:03:21.463Z,32.73
2019-04-06T06:05:50.203Z,31.47
2019-04-06T06:08:19.134Z,32.07
2019-04-06T06:10:47.917Z,31.47
2019-04-06T06:13:16.665Z,33.73
2019-04-06T06:15:45.500Z,31.80
2019-04-06T06:18:25.357Z,31.70
2019-04-06T06:20:45.505Z,31.77
2019-04-06T06:23:14.579Z,31.23
2019-04-06T06:25:43.331Z,30.77
2019-04-06T06:28:14.943Z,32.07
2019-04-06T06:30:43.133Z,32.20
2019-04-06T06:33:12.011Z,31.07
2019-04-06T06:35:40.881Z,30.47
2019-04-06T06:38:09.898Z,33.00
2019-04-06T06:40:38.801Z,32.93
2019-04-06T06:43:07.516Z,34.97
2019-04-06T06:45:36.378Z,34.37
2019-04-06T06:48:05.426Z,35.70
2019-04-06T06:50:34.693Z,33.63
2019-04-06T06:53:03.841Z,36.30
2019-04-06T06:55:32.982Z,37.77
2019-04-06T06:58:01.854Z,37.57
2019-04-06T07:00:30.608Z,34.43
2019-04-06T07:02:59.785Z,35.10
2019-04-06T07:05:28.797Z,36.13
2019-04-06T07:07:57.854Z,36.73
2019-04-06T07:10:26.694Z,36.10
2019-04-06T07:12:55.515Z,36.87
2019-04-06T07:15:24.308Z,36.83
2019-04-06T07:17:53.153Z,36.40
2019-04-06T07:20:22.066Z,36.23
2019-04-06T07:22:51.133Z,35.93
2019-04-06T07:25:19.894Z,37.17
2019-04-06T07:27:48.638Z,38.07
2019-04-06T07:30:17.812Z,37.77
2019-04-06T07:32:46.497Z,37.50
2019-04-06T07:35:15.404Z,40.27
2019-04-06T07:37:44.498Z,38.80
2019-04-06T07:40:14.515Z,39.27
2019-04-06T07:42:43.488Z,40.33
2019-04-06T07:45:12.913Z,36.83
2019-04-06T07:47:42.751Z,37.73
2019-04-06T07:50:12.927Z,35.77
2019-04-06T07:52:42.652Z,37.03
2019-04-06T07:55:12.774Z,33.83
2019-04-06T07:57:41.954Z,37.00
2019-04-06T08:00:11.241Z,36.80
2019-04-06T08:02:40.077Z,36.63
2019-04-06T08:05:09.088Z,35.30
2019-04-06T08:07:37.956Z,34.53
2019-04-06T08:10:06.956Z,34.00
2019-04-06T08:12:35.702Z,36.10
2019-04-06T08:15:05.472Z,36.57
2019-04-06T08:17:34.305Z,35.37
2019-04-06T08:20:03.120Z,37.03
2019-04-06T08:22:31.874Z,36.27
2019-04-06T08:25:01.100Z,35.77
2019-04-06T08:27:29.838Z,37.30
2019-04-06T08:29:58.608Z,36.27
2019-04-06T08:32:27.504Z,35.60
2019-04-06T08:34:56.320Z,36.10
2019-04-06T08:37:25.075Z,37.53
2019-04-06T08:39:53.877Z,37.33
2019-04-06T08:42:22.642Z,39.70
2019-04-06T08:44:51.394Z,39.43
2019-04-06T08:47:20.225Z,40.33
2019-04-06T08:49:49.319Z,40.43
2019-04-06T08:52:18.077Z,40.93
2019-04-06T08:54:46.817Z,39.83
2019-04-06T08:57:15.574Z,39.73
2019-04-06T08:59:44.326Z,39.87
2019-04-06T09:02:13.160Z,40.83
2019-04-06T09:04:41.915Z,40.80
2019-04-06T09:07:10.750Z,41.73
2019-04-06T09:09:39.747Z,38.23
2019-04-06T09:12:08.445Z,40.63
2019-04-06T09:14:37.218Z,40.83
2019-04-06T09:17:06.117Z,39.13
2019-04-06T09:19:34.847Z,39.33
2019-04-06T09:22:03.678Z,38.93
2019-04-06T09:24:32.503Z,40.43
2019-04-06T09:27:01.272Z,40.50
2019-04-06T09:29:30.070Z,39.50
2019-04-06T09:31:58.856Z,38.50
2019-04-06T09:34:30.554Z,38.70
2019-04-06T09:36:58.486Z,40.40
2019-04-06T09:39:27.273Z,39.20
2019-04-06T09:41:55.989Z,38.77
2019-04-06T09:44:56.224Z,39.70
2019-04-06T09:47:28.956Z,37.17
2019-04-06T09:50:07.176Z,36.13
2019-04-06T09:52:45.394Z,35.83
2019-04-06T09:55:39.282Z,36.17
2019-04-06T09:58:20.149Z,34.60
2019-04-06T10:01:03.868Z,36.60
2019-04-06T10:03:40.359Z,35.10
2019-04-06T10:06:33.738Z,36.40
2019-04-06T10:09:24.819Z,35.00
2019-04-06T10:12:11.624Z,33.47
2019-04-06T10:14:54.007Z,34.47
2019-04-06T10:17:40.669Z,35.70
2019-04-06T10:20:21.761Z,35.13
2019-04-06T10:23:19.128Z,35.43
2019-04-06T10:25:53.616Z,35.37
2019-04-06T10:28:50.340Z,34.40
2019-04-06T10:31:37.501Z,36.70
2019-04-06T10:34:15.560Z,35.73
2019-04-06T10:36:59.857Z,35.53
2019-04-06T10:39:39.353Z,34.90
2019-04-06T10:42:30.527Z,35.03
2019-04-06T10:45:21.688Z,33.60
2019-04-06T10:48:12.231Z,33.53
2019-04-06T10:50:52.046Z,34.70
2019-04-06T10:53:39.022Z,34.37
2019-04-06T10:56:19.807Z,32.10
2019-04-06T10:59:15.426Z,33.43
2019-04-06T11:02:02.549Z,34.23
2019-04-06T11:04:36.305Z,33.70
2019-04-06T11:07:24.296Z,33.50
2019-04-06T11:10:09.345Z,32.23
2019-04-06T11:12:46.022Z,32.20
2019-04-06T11:15:32.885Z,31.90
2019-04-06T11:18:22.721Z,31.47
2019-04-06T11:21:11.105Z,30.93
2019-04-06T11:23:46.861Z,31.53
2019-04-06T11:26:26.997Z,29.87
2019-04-06T11:29:16.865Z,28.53
2019-04-06T11:31:56.954Z,31.70
2019-04-06T11:34:39.179Z,29.67
2019-04-06T11:37:14.894Z,29.40
2019-04-06T11:39:56.157Z,29.70
2019-04-06T11:42:47.189Z,30.03
2019-04-06T11:45:28.150Z,28.17
2019-04-06T11:48:14.576Z,29.47
2019-04-06T11:51:12.118Z,28.07
2019-04-06T11:53:48.773Z,27.50
2019-04-06T11:56:35.108Z,27.20
2019-04-06T11:59:23.025Z,27.13
2019-04-06T12:02:02.162Z,27.17
2019-04-06T12:05:05.488Z,28.73
2019-04-06T12:07:52.072Z,27.87
2019-04-06T12:10:29.180Z,28.73
2019-04-06T12:13:16.089Z,28.23
2019-04-06T12:15:53.635Z,28.67
2019-04-06T12:18:31.992Z,26.97
2019-04-06T12:21:25.619Z,26.43
2019-04-06T12:24:22.889Z,27.90
2019-04-06T12:27:20.284Z,27.73
2019-04-06T12:30:08.780Z,26.63
2019-04-06T12:32:55.731Z,26.87
2019-04-06T12:35:50.216Z,27.17
2019-04-06T12:38:38.127Z,25.43
2019-04-06T12:41:17.232Z,26.20
2019-04-06T12:44:14.513Z,25.60
2019-04-06T12:46:52.890Z,23.63
2019-04-06T12:49:46.656Z,23.87
2019-04-06T12:52:37.274Z,22.50
2019-04-06T12:55:25.500Z,23.07
2019-04-06T12:58:05.808Z,23.87
2019-04-06T13:00:53.299Z,23.10
2019-04-06T13:03:51.413Z,24.60
2019-04-06T13:06:47.042Z,22.13
2019-04-06T13:09:26.574Z,21.87
2019-04-06T13:12:13.070Z,22.40
2019-04-06T13:14:54.445Z,21.60
2019-04-06T13:17:30.131Z,21.53
2019-04-06T13:20:16.985Z,20.73
2019-04-06T13:23:00.779Z,20.40
2019-04-06T13:25:57.637Z,19.83
2019-04-06T13:28:51.508Z,19.63
2019-04-06T13:31:44.992Z,21.03
2019-04-06T13:34:44.928Z,19.20
2019-04-06T13:37:22.705Z,20.67
2019-04-06T13:40:10.521Z,19.60
2019-04-06T13:43:10.679Z,19.07
2019-04-06T13:45:59.307Z,17.33
2019-04-06T13:48:46.001Z,18.17
2019-04-06T13:51:28.828Z,15.73
2019-04-06T13:54:12.323Z,15.97
2019-04-06T13:56:49.492Z,16.13
2019-04-06T13:59:27.332Z,15.83
2019-04-06T14:02:04.946Z,16.30
2019-04-06T14:04:40.909Z,14.87
2019-04-06T14:07:22.541Z,13.60
2019-04-06T14:10:04.538Z,13.73
2019-04-06T14:12:58.346Z,14.77
2019-04-06T14:15:43.263Z,14.13
2019-04-06T14:18:21.176Z,14.13
2019-04-06T14:21:02.854Z,15.53
2019-04-06T14:23:56.905Z,14.20
2019-04-06T14:26:37.380Z,14.37
2019-04-06T14:29:23.873Z,14.90
2019-04-06T14:32:02.710Z,14.70
2019-04-06T14:34:45.898Z,15.13
2019-04-06T14:37:39.825Z,15.27
2019-04-06T14:40:31.632Z,13.63
2019-04-06T14:43:25.156Z,13.27
2019-04-06T14:46:19.418Z,13.73
2019-04-06T14:49:17.186Z,12.73
2019-04-06T14:51:52.997Z,13.90
2019-04-06T14:54:39.995Z,12.83
2019-04-06T14:57:23.786Z,13.37
2019-04-06T15:00:02.770Z,12.40
2019-04-06T15:02:40.271Z,11.90
2019-04-06T15:05:20.997Z,12.67
2019-04-06T15:07:59.004Z,12.43
2019-04-06T15:10:44.312Z,12.60
2019-04-06T15:13:18.982Z,12.93
2019-04-06T15:16:06.878Z,12.90
2019-04-06T15:18:42.256Z,12.47
2019-04-06T15:21:16.645Z,13.50
2019-04-06T15:23:52.915Z,12.90
2019-04-06T15:26:29.528Z,12.77
2019-04-06T15:29:20.158Z,13.80
2019-04-06T15:32:20.490Z,13.93
2019-04-06T15:35:07.292Z,13.17
2019-04-06T15:37:48.985Z,14.00
2019-04-06T15:40:45.939Z,13.43
2019-04-06T15:43:25.198Z,13.63
2019-04-06T15:46:12.095Z,13.43
2019-04-06T15:49:02.807Z,13.43
2019-04-06T15:51:53.647Z,13.47
2019-04-06T15:54:31.503Z,13.90
2019-04-06T15:57:19.589Z,13.93
2019-04-06T15:59:54.586Z,16.70
2019-04-06T16:02:48.479Z,15.30
2019-04-06T16:05:29.229Z,15.87
2019-04-06T16:08:09.452Z,15.97
2019-04-06T16:10:55.380Z,16.50
2019-04-06T16:13:42.207Z,16.63
2019-04-06T16:16:36.121Z,18.10
2019-04-06T16:19:23.185Z,18.80
2019-04-06T16:22:14.144Z,18.53
2019-04-06T16:25:01.971Z,18.77
2019-04-06T16:27:41.085Z,18.37
2019-04-06T16:30:21.622Z,17.73
2019-04-06T16:33:02.752Z,18.13
2019-04-06T16:35:43.840Z,19.30
2019-04-06T16:38:22.103Z,19.23
2019-04-06T16:41:09.588Z,19.00
2019-04-06T16:43:56.543Z,19.20
2019-04-06T16:46:43.657Z,17.93
2019-04-06T16:49:37.965Z,19.27
2019-04-06T16:52:14.009Z,18.43
2019-04-06T16:55:05.437Z,18.33
2019-04-06T16:57:44.928Z,18.73
2019-04-06T17:00:29.636Z,18.83
2019-04-06T17:03:06.713Z,18.80
2019-04-06T17:05:58.330Z,18.10
2019-04-06T17:08:32.370Z,19.33
2019-04-06T17:11:30.811Z,18.93
2019-04-06T17:14:17.517Z,18.23
2019-04-06T17:17:00.754Z,18.63
2019-04-06T17:19:49.587Z,17.93
2019-04-06T17:22:26.284Z,18.50
2019-04-06T17:25:06.771Z,19.17
2019-04-06T17:27:49.237Z,18.77
2019-04-06T17:30:29.547Z,18.60
2019-04-06T17:33:09.981Z,17.73
2019-04-06T17:35:56.111Z,17.40
2019-04-06T17:38:30.466Z,17.60
2019-04-06T17:41:05.422Z,17.07
2019-04-06T17:43:52.507Z,16.30
2019-04-06T17:46:36.887Z,17.53
2019-04-06T17:49:24.755Z,17.57
2019-04-06T17:52:19.393Z,17.70
2019-04-06T17:54:58.221Z,18.43
2019-04-06T17:57:44.799Z,18.40
2019-04-06T18:00:37.060Z,19.90
2019-04-06T18:03:31.369Z,18.47
2019-04-06T18:06:27.475Z,18.33
2019-04-06T18:09:21.047Z,18.97
2019-04-06T18:11:55.176Z,18.27
2019-04-06T18:14:24.668Z,19.40
2019-04-06T18:16:53.353Z,20.30
2019-04-06T18:19:22.354Z,22.33
2019-04-06T18:21:51.093Z,25.10
2019-04-06T18:24:20.233Z,24.30
2019-04-06T18:26:49.121Z,24.83
2019-04-06T18:29:18.407Z,21.37
2019-04-06T18:31:59.183Z,21.37
2019-04-06T18:34:28.529Z,21.13
2019-04-06T18:37:25.729Z,21.03
2019-04-06T18:39:55.714Z,21.60
2019-04-06T18:42:24.542Z,21.50
2019-04-06T18:44:53.406Z,21.10
2019-04-06T18:47:22.132Z,20.37
2019-04-06T18:49:50.887Z,22.03
2019-04-06T18:52:20.078Z,21.40
2019-04-06T18:54:48.854Z,20.90
2019-04-06T18:57:17.592Z,22.43
2019-04-06T18:59:46.359Z,21.90
2019-04-06T19:02:15.115Z,21.67
2019-04-06T19:04:44.036Z,25.57
2019-04-06T19:07:12.950Z,22.30
2019-04-06T19:09:41.862Z,21.60
2019-04-06T19:12:10.721Z,21.20
2019-04-06T19:14:39.512Z,20.93
2019-04-06T19:17:08.502Z,20.07
2019-04-06T19:19:37.434Z,21.30
2019-04-06T19:22:06.129Z,21.13
2019-04-06T19:24:35.119Z,22.40
2019-04-06T19:27:04.471Z,22.83
2019-04-06T19:29:33.198Z,22.63
2019-04-06T19:32:02.841Z,22.13
2019-04-06T19:34:31.593Z,22.53
2019-04-06T19:37:00.356Z,22.10
2019-04-06T19:39:29.199Z,22.50
2019-04-06T19:41:58.375Z,21.67
2019-04-06T19:44:27.268Z,22.97
2019-04-06T19:47:02.765Z,21.90
2019-04-06T19:49:50.131Z,22.63
2019-04-06T19:52:26.719Z,23.77
2019-04-06T19:55:08.992Z,24.77
2019-04-06T19:57:43.689Z,24.37
2019-04-06T20:00:13.366Z,25.80
2019-04-06T20:03:06.369Z,24.13
2019-04-06T20:05:35.611Z,24.87
2019-04-06T20:08:15.401Z,25.37
2019-04-06T20:10:55.467Z,25.33
2019-04-06T20:13:47.447Z,26.33
2019-04-06T20:19:18.045Z,28.00
2019-04-06T20:21:57.902Z,29.17
2019-04-06T20:24:32.811Z,26.27
2019-04-06T20:27:07.128Z,27.00
2019-04-06T20:29:53.501Z,27.00
2019-04-06T20:32:22.290Z,27.23
2019-04-06T20:34:53.632Z,27.50
2019-04-06T20:37:22.649Z,27.50
2019-04-06T20:39:54.289Z,28.40
2019-04-06T20:42:41.616Z,28.33
2019-04-06T20:45:16.816Z,26.40
2019-04-06T20:47:50.661Z,26.40
2019-04-06T20:50:22.401Z,26.17
2019-04-06T20:56:30.272Z,26.33
2019-04-06T20:59:05.393Z,27.40
2019-04-06T21:01:35.962Z,27.13
2019-04-06T21:04:09.215Z,27.23
2019-04-06T21:06:44.030Z,26.57
2019-04-06T21:09:20.044Z,25.80
2019-04-06T21:12:23.696Z,27.63
2019-04-06T21:14:58.877Z,26.67
2019-04-06T21:17:27.935Z,27.33
2019-04-06T21:20:00.196Z,27.60
2019-04-06T21:22:29.529Z,27.77
2019-04-06T21:25:01.779Z,28.47
2019-04-06T21:27:36.232Z,28.10
2019-04-06T21:30:15.209Z,27.73
2019-04-06T21:32:55.472Z,26.83
2019-04-06T21:35:24.362Z,25.70
2019-04-06T21:38:05.531Z,26.77
2019-04-06T21:40:35.102Z,26.43
2019-04-06T21:43:09.076Z,26.23
2019-04-06T21:45:41.039Z,26.90
2019-04-06T21:48:10.449Z,26.23
2019-04-06T21:50:42.366Z,25.13
2019-04-06T21:53:14.899Z,26.73
2019-04-06T21:55:48.380Z,25.50
2019-04-06T21:58:17.721Z,25.57
2019-04-06T22:01:02.663Z,25.80
2019-04-06T22:03:36.515Z,26.73
2019-04-06T22:06:09.935Z,26.53
2019-04-06T22:08:47.087Z,27.03
2019-04-06T22:11:23.966Z,26.70
2019-04-06T22:13:51.462Z,26.30
2019-04-06T22:16:32.506Z,25.83
2019-04-06T22:19:07.945Z,26.00
2019-04-06T22:21:47.250Z,27.50
2019-04-06T22:24:17.118Z,26.47
2019-04-06T22:26:46.363Z,25.60
2019-04-06T22:29:17.297Z,26.17
2019-04-06T22:31:46.416Z,26.20
2019-04-06T22:34:16.466Z,26.27
2019-04-06T22:36:48.111Z,34.47
2019-04-06T22:39:17.183Z,29.47
2019-04-06T22:41:48.192Z,42.03
2019-04-06T22:44:25.338Z,46.30
2019-04-06T22:46:56.813Z,41.20
2019-04-06T22:49:29.379Z,39.33
2019-04-06T22:52:03.587Z,36.90
2019-04-06T22:54:34.452Z,36.80
2019-04-06T22:57:04.363Z,27.83
2019-04-06T22:59:34.709Z,32.10
2019-04-06T23:02:09.327Z,27.60
2019-04-06T23:04:55.047Z,31.83
2019-04-06T23:07:28.063Z,33.13
2019-04-06T23:09:57.695Z,33.10
2019-04-06T23:12:26.828Z,28.23
2019-04-06T23:14:58.262Z,26.80
2019-04-06T23:17:31.818Z,29.87
2019-04-06T23:20:16.330Z,28.07
2019-04-06T23:22:58.149Z,24.97
2019-04-06T23:25:31.390Z,22.30
2019-04-06T23:28:00.273Z,23.67
2019-04-06T23:30:29.638Z,33.70
2019-04-06T23:32:58.504Z,29.60
2019-04-06T23:35:35.917Z,27.10
2019-04-06T23:38:08.540Z,24.43
2019-04-06T23:40:38.839Z,23.30
2019-04-06T23:43:11.733Z,23.10
2019-04-06T23:45:41.139Z,22.53
2019-04-06T23:48:12.800Z,23.07
2019-04-06T23:50:52.939Z,22.90
2019-04-06T23:53:22.026Z,23.53
2019-04-06T23:55:55.291Z,23.87
2019-04-06T23:58:24.470Z,24.10
